createdAt,value
2023-05-24T00:00:11.350Z,102356.97
2023-05-24T00:02:42.955Z,102357.06
2023-05-24T00:05:12.302Z,102349.97
2023-05-24T00:07:40.916Z,102346.31
2023-05-24T00:10:11.748Z,102356.69
2023-05-24T00:12:40.285Z,102347.81
2023-05-24T00:15:10.281Z,102346.06
2023-05-24T00:17:42.981Z,102340.00
2023-05-24T00:20:14.521Z,102335.66
2023-05-24T00:22:43.712Z,102339.09
2023-05-24T00:25:12.167Z,102334.72
2023-05-24T00:27:40.883Z,102319.88
2023-05-24T00:30:10.187Z,102322.53
2023-05-24T00:32:40.178Z,102320.75
2023-05-24T00:35:09.763Z,102312.84
2023-05-24T00:37:41.963Z,102310.94
2023-05-24T00:40:11.585Z,102308.09
2023-05-24T00:42:40.188Z,102304.41
2023-05-24T00:45:10.427Z,102302.50
2023-05-24T00:47:40.692Z,102297.94
2023-05-24T00:50:11.892Z,102296.97
2023-05-24T00:52:41.163Z,102302.94
2023-05-24T00:55:11.478Z,102305.44
2023-05-24T00:57:41.163Z,102306.22
2023-05-24T01:00:11.981Z,102311.34
2023-05-24T01:02:41.983Z,102305.94
2023-05-24T01:05:13.741Z,102298.09
2023-05-24T01:07:56.000Z,102301.47
2023-05-24T01:10:33.817Z,102300.50
2023-05-24T01:13:11.070Z,102299.63
2023-05-24T01:15:50.872Z,102307.41
2023-05-24T01:18:30.456Z,102311.69
2023-05-24T01:21:17.933Z,102307.31
2023-05-24T01:23:56.960Z,102312.69
2023-05-24T01:26:43.816Z,102310.25
2023-05-24T01:29:15.300Z,102315.75
2023-05-24T01:31:44.508Z,102316.78
2023-05-24T01:34:13.683Z,102318.72
2023-05-24T01:36:42.090Z,102311.09
2023-05-24T01:39:11.401Z,102315.56
2023-05-24T01:41:46.255Z,102313.84
2023-05-24T01:44:28.857Z,102312.22
2023-05-24T01:47:06.382Z,102316.78
2023-05-24T01:49:44.153Z,102310.91
2023-05-24T01:52:17.742Z,102313.72
2023-05-24T01:54:55.101Z,102306.13
2023-05-24T01:57:24.970Z,102301.81
2023-05-24T01:59:56.776Z,102296.59
2023-05-24T02:02:25.484Z,102302.59
2023-05-24T02:04:54.054Z,102295.53
2023-05-24T02:07:22.414Z,102304.31
2023-05-24T02:09:50.830Z,102302.66
2023-05-24T02:12:19.256Z,102298.41
2023-05-24T02:14:51.003Z,102301.22
2023-05-24T02:17:21.027Z,102295.19
2023-05-24T02:19:49.585Z,102290.94
2023-05-24T02:22:18.025Z,102281.22
2023-05-24T02:24:48.572Z,102276.66
2023-05-24T02:27:17.185Z,102281.72
2023-05-24T02:29:47.824Z,102286.13
2023-05-24T02:32:16.389Z,102285.44
2023-05-24T02:34:46.493Z,102289.25
2023-05-24T02:37:15.032Z,102289.50
2023-05-24T02:39:43.676Z,102284.47
2023-05-24T02:42:12.265Z,102289.78
2023-05-24T02:44:42.934Z,102285.44
2023-05-24T02:47:11.265Z,102281.25
2023-05-24T02:49:39.657Z,102279.63
2023-05-24T02:52:09.575Z,102284.22
2023-05-24T02:54:38.660Z,102281.72
2023-05-24T02:57:09.139Z,102275.69
2023-05-24T02:59:38.322Z,102271.50
2023-05-24T03:02:08.111Z,102281.28
2023-05-24T03:04:37.177Z,102281.44
2023-05-24T03:07:06.440Z,102272.81
2023-05-24T03:09:36.347Z,102281.66
2023-05-24T03:12:05.203Z,102284.44
2023-05-24T03:14:33.716Z,102270.56
2023-05-24T03:17:02.256Z,102271.56
2023-05-24T03:19:30.667Z,102269.09
2023-05-24T03:21:59.138Z,102265.59
2023-05-24T03:24:27.556Z,102272.66
2023-05-24T03:26:57.339Z,102272.59
2023-05-24T03:29:26.046Z,102267.34
2023-05-24T03:31:54.468Z,102268.31
2023-05-24T03:34:22.979Z,102270.16
2023-05-24T03:36:51.557Z,102270.25
2023-05-24T03:39:19.981Z,102265.00
2023-05-24T03:41:48.425Z,102265.91
2023-05-24T03:44:19.910Z,102271.94
2023-05-24T03:46:48.298Z,102256.97
2023-05-24T03:49:16.696Z,102268.34
2023-05-24T03:51:45.310Z,102258.81
2023-05-24T03:54:13.786Z,102258.75
2023-05-24T03:56:42.126Z,102260.53
2023-05-24T03:59:11.556Z,102269.34
2023-05-24T04:01:41.405Z,102260.78
2023-05-24T04:04:09.776Z,102272.31
2023-05-24T04:06:41.928Z,102265.50
2023-05-24T04:09:10.300Z,102264.75
2023-05-24T04:11:39.165Z,102270.09
2023-05-24T04:14:07.836Z,102262.34
2023-05-24T04:16:36.333Z,102267.72
2023-05-24T04:19:06.305Z,102264.41
2023-05-24T04:21:37.020Z,102270.66
2023-05-24T04:24:06.221Z,102271.75
2023-05-24T04:26:37.758Z,102282.41
2023-05-24T04:29:07.874Z,102281.66
2023-05-24T04:31:37.035Z,102276.47
2023-05-24T04:34:08.160Z,102273.88
2023-05-24T04:36:37.345Z,102273.97
2023-05-24T04:39:06.381Z,102281.09
2023-05-24T04:41:36.236Z,102290.00
2023-05-24T04:44:04.809Z,102284.03
2023-05-24T04:46:36.349Z,102284.94
2023-05-24T04:49:08.608Z,102276.22
2023-05-24T04:51:38.858Z,102279.75
2023-05-24T04:54:09.856Z,102279.88
2023-05-24T04:56:39.329Z,102286.97
2023-05-24T04:59:09.609Z,102298.44
2023-05-24T05:01:38.589Z,102285.38
2023-05-24T05:04:08.929Z,102284.66
2023-05-24T05:06:39.700Z,102288.28
2023-05-24T05:09:09.614Z,102289.28
2023-05-24T05:11:40.617Z,102278.94
2023-05-24T05:14:10.161Z,102288.72
2023-05-24T05:16:39.575Z,102289.81
2023-05-24T05:19:09.830Z,102304.03
2023-05-24T05:21:39.830Z,102299.88
2023-05-24T05:24:09.308Z,102304.50
2023-05-24T05:26:38.189Z,102302.88
2023-05-24T05:29:06.690Z,102299.44
2023-05-24T05:31:35.297Z,102300.41
2023-05-24T05:34:03.781Z,102304.78
2023-05-24T05:36:34.224Z,102304.75
2023-05-24T05:39:02.643Z,102310.09
2023-05-24T05:41:31.034Z,102312.84
2023-05-24T05:43:59.388Z,102304.16
2023-05-24T05:46:27.979Z,102305.06
2023-05-24T05:48:56.486Z,102306.84
2023-05-24T05:51:25.248Z,102309.59
2023-05-24T05:53:55.272Z,102306.22
2023-05-24T05:56:23.769Z,102299.44
2023-05-24T05:58:52.229Z,102310.22
2023-05-24T06:01:20.855Z,102320.03
2023-05-24T06:03:49.587Z,102306.91
2023-05-24T06:06:18.802Z,102320.94
2023-05-24T06:08:47.207Z,102312.97
2023-05-24T06:11:17.122Z,102310.22
2023-05-24T06:13:45.459Z,102313.75
2023-05-24T06:16:14.463Z,102311.88
2023-05-24T06:18:50.122Z,102306.50
2023-05-24T06:21:22.872Z,102313.53
2023-05-24T06:23:52.093Z,102310.84
2023-05-24T06:26:22.509Z,102315.28
2023-05-24T06:28:51.609Z,102320.53
2023-05-24T06:31:20.406Z,102318.78
2023-05-24T06:34:02.607Z,102318.75
2023-05-24T06:36:34.358Z,102323.13
2023-05-24T06:39:03.865Z,102318.66
2023-05-24T06:41:34.233Z,102332.81
2023-05-24T06:44:02.701Z,102324.91
2023-05-24T06:46:31.444Z,102325.72
2023-05-24T06:49:00.126Z,102320.34
2023-05-24T06:51:28.757Z,102321.13
2023-05-24T06:53:57.351Z,102327.19
2023-05-24T06:56:27.005Z,102324.56
2023-05-24T06:58:56.922Z,102329.94
2023-05-24T07:01:25.351Z,102330.94
2023-05-24T07:03:54.100Z,102339.03
2023-05-24T07:06:22.787Z,102337.31
2023-05-24T07:08:51.178Z,102339.16
2023-05-24T07:11:19.883Z,102343.69
2023-05-24T07:13:48.316Z,102347.31
2023-05-24T07:16:18.292Z,102347.53
2023-05-24T07:18:46.881Z,102347.75
2023-05-24T07:21:15.344Z,102350.47
2023-05-24T07:23:46.567Z,102352.25
2023-05-24T07:26:15.040Z,102360.16
2023-05-24T07:28:43.540Z,102360.13
2023-05-24T07:31:12.173Z,102364.50
2023-05-24T07:33:42.437Z,102362.75
2023-05-24T07:36:10.998Z,102358.38
2023-05-24T07:38:41.068Z,102367.22
2023-05-24T07:41:09.472Z,102365.56
2023-05-24T07:43:38.760Z,102354.25
2023-05-24T07:46:10.556Z,102357.91
2023-05-24T07:48:39.293Z,102354.53
2023-05-24T07:51:09.449Z,102351.97
2023-05-24T07:53:40.285Z,102356.34
2023-05-24T07:56:09.996Z,102359.06
2023-05-24T07:58:40.761Z,102354.69
2023-05-24T08:01:09.375Z,102359.06
2023-05-24T08:03:38.781Z,102347.56
2023-05-24T08:06:10.175Z,102355.50
2023-05-24T08:08:41.506Z,102367.91
2023-05-24T08:11:09.977Z,102371.44
2023-05-24T08:13:38.803Z,102377.53
2023-05-24T08:16:08.653Z,102367.84
2023-05-24T08:18:37.751Z,102373.97
2023-05-24T08:21:09.047Z,102367.75
2023-05-24T08:23:38.925Z,102379.25
2023-05-24T08:26:09.154Z,102373.06
2023-05-24T08:28:37.871Z,102361.59
2023-05-24T08:31:07.372Z,102373.94
2023-05-24T08:33:36.676Z,102370.47
2023-05-24T08:36:05.477Z,102373.09
2023-05-24T08:38:33.894Z,102376.63
2023-05-24T08:41:07.300Z,102378.41
2023-05-24T08:43:36.455Z,102380.16
2023-05-24T08:46:07.285Z,102382.00
2023-05-24T08:48:37.567Z,102386.44
2023-05-24T08:51:07.604Z,102379.38
2023-05-24T08:53:39.410Z,102387.31
2023-05-24T08:56:10.655Z,102382.00
2023-05-24T08:58:40.317Z,102389.94
2023-05-24T09:01:09.225Z,102388.19
2023-05-24T09:03:39.726Z,102378.47
2023-05-24T09:06:10.689Z,102383.78
2023-05-24T09:08:40.596Z,102378.47
2023-05-24T09:11:12.825Z,102387.22
2023-05-24T09:13:41.454Z,102384.53
2023-05-24T09:16:10.494Z,102384.50
2023-05-24T09:18:39.144Z,102388.94
2023-05-24T09:21:08.532Z,102389.84
2023-05-24T09:23:37.938Z,102393.41
2023-05-24T09:26:11.841Z,102397.84
2023-05-24T09:28:41.926Z,102390.78
2023-05-24T09:31:10.731Z,102394.28
2023-05-24T09:33:40.993Z,102394.28
2023-05-24T09:36:10.905Z,102392.53
2023-05-24T09:38:39.472Z,102393.38
2023-05-24T09:41:11.179Z,102384.50
2023-05-24T09:43:50.038Z,102390.59
2023-05-24T09:46:19.726Z,102388.75
2023-05-24T09:48:58.903Z,102396.72
2023-05-24T09:51:28.359Z,102397.69
2023-05-24T09:53:59.527Z,102404.88
2023-05-24T09:56:32.642Z,102410.22
2023-05-24T09:59:08.235Z,102397.78
2023-05-24T10:01:37.000Z,102385.34
2023-05-24T10:04:10.032Z,102390.56
2023-05-24T10:06:45.958Z,102387.84
2023-05-24T10:09:19.231Z,102385.22
2023-05-24T10:11:58.488Z,102379.84
2023-05-24T10:14:39.098Z,102389.47
2023-05-24T10:17:13.637Z,102375.22
2023-05-24T10:19:48.204Z,102388.63
2023-05-24T10:22:26.938Z,102394.06
2023-05-24T10:25:05.550Z,102388.00
2023-05-24T10:27:42.734Z,102394.16
2023-05-24T10:30:24.674Z,102395.09
2023-05-24T10:32:57.597Z,102396.84
2023-05-24T10:35:35.035Z,102393.31
2023-05-24T10:38:12.658Z,102396.00
2023-05-24T10:40:49.233Z,102391.47
2023-05-24T10:43:20.034Z,102392.16
2023-05-24T10:45:53.337Z,102396.25
2023-05-24T10:48:37.393Z,102387.97
2023-05-24T10:51:33.650Z,102397.53
2023-05-24T10:54:17.643Z,102394.66
2023-05-24T10:56:48.416Z,102394.69
2023-05-24T10:59:30.853Z,102385.78
2023-05-24T11:02:01.298Z,102384.75
2023-05-24T11:04:35.222Z,102401.78
2023-05-24T11:07:06.544Z,102398.75
2023-05-24T11:09:35.322Z,102400.09
2023-05-24T11:12:07.701Z,102405.63
2023-05-24T11:14:40.673Z,102410.19
2023-05-24T11:17:10.796Z,102402.25
2023-05-24T11:19:47.132Z,102392.53
2023-05-24T11:22:16.374Z,102396.06
2023-05-24T11:24:45.081Z,102404.91
2023-05-24T11:27:14.803Z,102405.84
2023-05-24T11:29:45.964Z,102406.72
2023-05-24T11:32:19.015Z,102408.50
2023-05-24T11:34:48.753Z,102412.00
2023-05-24T11:37:18.867Z,102405.72
2023-05-24T11:39:53.418Z,102406.53
2023-05-24T11:42:24.699Z,102407.41
2023-05-24T11:44:55.426Z,102415.38
2023-05-24T11:47:25.103Z,102417.97
2023-05-24T11:49:53.647Z,102407.28
2023-05-24T11:52:22.264Z,102409.91
2023-05-24T11:54:51.855Z,102414.97
2023-05-24T11:57:27.355Z,102419.97
2023-05-24T11:59:58.559Z,102410.88
2023-05-24T12:02:31.189Z,102416.97
2023-05-24T12:05:09.942Z,102416.84
2023-05-24T12:07:40.873Z,102421.22
2023-05-24T12:10:14.692Z,102417.56
2023-05-24T12:12:46.358Z,102422.81
2023-05-24T12:15:18.625Z,102417.56
2023-05-24T12:17:51.497Z,102420.41
2023-05-24T12:20:21.843Z,102424.16
2023-05-24T12:22:51.903Z,102426.94
2023-05-24T12:25:22.888Z,102426.88
2023-05-24T12:27:56.206Z,102423.22
2023-05-24T12:30:28.687Z,102416.03
2023-05-24T12:32:57.816Z,102418.59
2023-05-24T12:35:26.545Z,102428.09
2023-05-24T12:38:01.173Z,102427.22
2023-05-24T12:40:34.496Z,102426.59
2023-05-24T12:43:03.741Z,102426.84
2023-05-24T12:45:33.751Z,102426.16
2023-05-24T12:48:03.018Z,102429.94
2023-05-24T12:50:31.964Z,102428.31
2023-05-24T12:53:00.331Z,102427.53
2023-05-24T12:55:30.034Z,102425.84
2023-05-24T12:58:01.838Z,102422.28
2023-05-24T13:00:31.274Z,102427.63
2023-05-24T13:03:01.089Z,102417.91
2023-05-24T13:05:31.125Z,102426.72
2023-05-24T13:07:59.750Z,102429.31
2023-05-24T13:10:28.785Z,102428.44
2023-05-24T13:12:57.488Z,102431.13
2023-05-24T13:15:27.608Z,102428.44
2023-05-24T13:17:56.398Z,102431.94
2023-05-24T13:20:27.279Z,102429.25
2023-05-24T13:22:57.210Z,102434.56
2023-05-24T13:25:27.684Z,102432.78
2023-05-24T13:27:57.040Z,102439.06
2023-05-24T13:30:28.829Z,102440.84
2023-05-24T13:32:59.575Z,102427.53
2023-05-24T13:35:33.919Z,102440.78
2023-05-24T13:38:03.328Z,102429.28
2023-05-24T13:40:33.761Z,102429.25
2023-05-24T13:43:04.122Z,102433.56
2023-05-24T13:45:33.973Z,102429.09
2023-05-24T13:48:04.207Z,102425.50
2023-05-24T13:50:37.223Z,102429.78
2023-05-24T13:53:08.281Z,102435.84
2023-05-24T13:55:40.290Z,102425.13
2023-05-24T13:58:10.152Z,102426.81
2023-05-24T14:00:42.750Z,102425.81
2023-05-24T14:03:13.446Z,102420.38
2023-05-24T14:05:45.103Z,102419.41
2023-05-24T14:08:14.440Z,102430.06
2023-05-24T14:10:43.482Z,102427.50
2023-05-24T14:13:34.284Z,102426.75
2023-05-24T14:16:01.774Z,102429.50
2023-05-24T14:18:31.527Z,102434.03
2023-05-24T14:21:02.671Z,102426.13
2023-05-24T14:23:35.327Z,102430.56
2023-05-24T14:26:04.806Z,102434.97
2023-05-24T14:28:40.661Z,102431.38
2023-05-24T14:31:13.299Z,102440.19
2023-05-24T14:33:43.092Z,102441.88
2023-05-24T14:36:14.097Z,102429.38
2023-05-24T14:38:45.442Z,102438.97
2023-05-24T14:41:14.388Z,102437.00
2023-05-24T14:43:43.769Z,102436.94
2023-05-24T14:46:13.228Z,102430.69
2023-05-24T14:48:50.041Z,102433.28
2023-05-24T14:51:22.515Z,102431.38
2023-05-24T14:53:52.138Z,102431.09
2023-05-24T14:56:25.776Z,102437.13
2023-05-24T14:58:55.344Z,102436.41
2023-05-24T15:01:25.967Z,102438.75
2023-05-24T15:03:54.790Z,102441.69
2023-05-24T15:06:25.208Z,102440.50
2023-05-24T15:08:56.449Z,102428.44
2023-05-24T15:11:29.560Z,102433.72
2023-05-24T15:13:59.331Z,102435.88
2023-05-24T15:16:41.795Z,102441.72
2023-05-24T15:19:13.496Z,102440.03
2023-05-24T15:21:44.526Z,102440.41
2023-05-24T15:24:20.030Z,102440.22
2023-05-24T15:26:51.233Z,102430.13
2023-05-24T15:29:23.034Z,102436.47
2023-05-24T15:31:52.506Z,102434.28
2023-05-24T15:34:23.805Z,102441.66
2023-05-24T15:36:58.560Z,102437.94
2023-05-24T15:39:34.781Z,102431.13
2023-05-24T15:42:04.964Z,102431.09
2023-05-24T15:44:39.633Z,102428.31
2023-05-24T15:47:10.632Z,102434.97
2023-05-24T15:49:41.176Z,102435.91
2023-05-24T15:52:12.184Z,102437.19
2023-05-24T15:54:47.377Z,102444.38
2023-05-24T15:57:17.742Z,102436.97
2023-05-24T15:59:47.289Z,102438.97
2023-05-24T16:02:18.697Z,102435.69
2023-05-24T16:04:53.559Z,102433.28
2023-05-24T16:07:26.541Z,102436.38
2023-05-24T16:09:57.361Z,102434.78
2023-05-24T16:12:26.894Z,102432.72
2023-05-24T16:15:04.149Z,102438.22
2023-05-24T16:17:37.000Z,102434.31
2023-05-24T16:20:07.560Z,102428.34
2023-05-24T16:22:40.931Z,102425.41
2023-05-24T16:25:11.673Z,102428.88
2023-05-24T16:27:40.870Z,102421.47
2023-05-24T16:30:14.220Z,102407.41
2023-05-24T16:32:48.112Z,102406.16
2023-05-24T16:35:18.215Z,102409.81
2023-05-24T16:37:49.988Z,102419.84
2023-05-24T16:40:19.161Z,102411.06
2023-05-24T16:42:49.087Z,102406.84
2023-05-24T16:45:17.909Z,102406.88
2023-05-24T16:47:53.944Z,102411.22
2023-05-24T16:50:24.399Z,102405.34
2023-05-24T16:52:55.410Z,102404.50
2023-05-24T16:55:29.567Z,102406.78
2023-05-24T16:57:59.200Z,102407.97
2023-05-24T17:00:28.889Z,102409.59
2023-05-24T17:02:59.517Z,102406.69
2023-05-24T17:05:29.140Z,102417.88
2023-05-24T17:08:01.462Z,102408.28
2023-05-24T17:10:31.221Z,102410.34
2023-05-24T17:13:04.415Z,102411.13
2023-05-24T17:15:33.841Z,102416.75
2023-05-24T17:18:03.288Z,102421.13
2023-05-24T17:20:40.439Z,102428.41
2023-05-24T17:23:14.518Z,102430.41
2023-05-24T17:25:43.901Z,102427.44
2023-05-24T17:28:17.578Z,102419.25
2023-05-24T17:30:49.358Z,102427.72
2023-05-24T17:33:19.052Z,102426.56
2023-05-24T17:35:48.344Z,102429.56
2023-05-24T17:38:22.660Z,102427.56
2023-05-24T17:40:57.195Z,102421.47
2023-05-24T17:43:30.151Z,102440.53
2023-05-24T17:46:04.136Z,102433.06
2023-05-24T17:48:34.316Z,102432.13
2023-05-24T17:51:07.302Z,102431.03
2023-05-24T17:53:41.507Z,102435.34
2023-05-24T17:56:11.645Z,102441.09
2023-05-24T17:58:41.588Z,102435.41
2023-05-24T18:01:13.390Z,102438.22
2023-05-24T18:03:43.221Z,102444.81
2023-05-24T18:06:13.673Z,102440.19
2023-05-24T18:08:45.639Z,102445.88
2023-05-24T18:11:16.523Z,102438.94
2023-05-24T18:13:47.176Z,102438.38
2023-05-24T18:16:17.582Z,102429.38
2023-05-24T18:18:51.456Z,102433.91
2023-05-24T18:21:21.311Z,102438.53
2023-05-24T18:23:52.891Z,102445.41
2023-05-24T18:26:24.103Z,102447.34
2023-05-24T18:29:02.364Z,102451.00
2023-05-24T18:31:34.866Z,102452.81
2023-05-24T18:34:07.026Z,102452.16
2023-05-24T18:36:38.025Z,102455.47
2023-05-24T18:39:10.360Z,102453.34
2023-05-24T18:41:42.431Z,102460.69
2023-05-24T18:44:11.626Z,102460.41
2023-05-24T18:46:42.145Z,102454.09
2023-05-24T18:49:13.560Z,102462.09
2023-05-24T18:51:45.527Z,102466.13
2023-05-24T18:54:16.175Z,102469.66
2023-05-24T18:56:45.943Z,102473.75
2023-05-24T18:59:17.103Z,102473.22
2023-05-24T19:01:46.807Z,102467.31
2023-05-24T19:04:35.166Z,102457.75
2023-05-24T19:07:04.576Z,102473.81
2023-05-24T19:09:39.490Z,102467.69
2023-05-24T19:12:11.086Z,102473.88
2023-05-24T19:14:41.761Z,102485.38
2023-05-24T19:17:11.075Z,102484.44
2023-05-24T19:19:40.503Z,102485.31
2023-05-24T19:22:11.160Z,102490.56
2023-05-24T19:24:41.853Z,102481.72
2023-05-24T19:27:11.385Z,102500.13
2023-05-24T19:29:41.433Z,102492.09
2023-05-24T19:32:11.648Z,102506.06
2023-05-24T19:34:42.651Z,102506.81
2023-05-24T19:37:12.927Z,102502.25
2023-05-24T19:39:46.963Z,102508.22
2023-05-24T19:42:16.369Z,102512.47
2023-05-24T19:44:48.202Z,102512.28
2023-05-24T19:47:18.092Z,102520.03
2023-05-24T19:49:48.327Z,102527.81
2023-05-24T19:52:20.392Z,102521.53
2023-05-24T19:54:52.858Z,102523.19
2023-05-24T19:57:22.904Z,102528.41
2023-05-24T20:00:02.647Z,102529.28
2023-05-24T20:02:33.390Z,102538.16
2023-05-24T20:05:04.950Z,102532.97
2023-05-24T20:10:22.419Z,102535.75
2023-05-24T20:12:52.499Z,102530.44
2023-05-24T20:15:27.995Z,102533.88
2023-05-24T20:17:58.409Z,102543.47
2023-05-24T20:20:29.304Z,102545.13
2023-05-24T20:22:58.510Z,102550.31
2023-05-24T20:25:29.479Z,102535.31
2023-05-24T20:27:59.228Z,102547.56
2023-05-24T20:30:32.450Z,102552.78
2023-05-24T20:33:02.177Z,102553.56
2023-05-24T20:35:31.928Z,102551.75
2023-05-24T20:38:00.747Z,102550.75
2023-05-24T20:40:32.478Z,102555.88
2023-05-24T20:43:02.123Z,102557.47
2023-05-24T20:45:31.547Z,102554.69
2023-05-24T20:48:00.877Z,102560.69
2023-05-24T20:50:30.772Z,102556.19
2023-05-24T20:53:00.206Z,102565.75
2023-05-24T20:55:31.465Z,102562.06
2023-05-24T20:58:01.442Z,102568.94
2023-05-24T21:00:30.524Z,102568.78
2023-05-24T21:03:00.790Z,102567.78
2023-05-24T21:05:30.288Z,102574.66
2023-05-24T21:08:01.352Z,102580.69
2023-05-24T21:10:36.041Z,102577.03
2023-05-24T21:13:14.777Z,102582.09
2023-05-24T21:15:45.810Z,102581.94
2023-05-24T21:18:24.748Z,102578.25
2023-05-24T21:20:56.612Z,102578.13
2023-05-24T21:23:26.423Z,102590.31
2023-05-24T21:25:57.384Z,102590.16
2023-05-24T21:28:28.634Z,102591.78
2023-05-24T21:30:58.703Z,102584.66
2023-05-24T21:33:28.501Z,102589.78
2023-05-24T21:35:58.588Z,102601.94
2023-05-24T21:38:29.773Z,102603.59
2023-05-24T21:41:00.591Z,102599.03
2023-05-24T21:43:30.503Z,102598.03
2023-05-24T21:46:00.338Z,102602.28
2023-05-24T21:48:29.936Z,102601.31
2023-05-24T21:50:59.347Z,102603.84
2023-05-24T21:53:29.562Z,102599.38
2023-05-24T21:56:01.514Z,102597.53
2023-05-24T21:58:33.696Z,102604.44
2023-05-24T22:01:08.270Z,102606.97
2023-05-24T22:03:39.860Z,102612.97
2023-05-24T22:06:15.126Z,102602.41
2023-05-24T22:08:44.289Z,102607.59
2023-05-24T22:11:18.360Z,102604.03
2023-05-24T22:13:47.951Z,102602.19
2023-05-24T22:16:19.624Z,102603.00
2023-05-24T22:18:49.383Z,102596.75
2023-05-24T22:21:21.601Z,102596.69
2023-05-24T22:23:51.952Z,102605.34
2023-05-24T22:26:25.486Z,102605.25
2023-05-24T22:28:57.019Z,102602.50
2023-05-24T22:31:35.445Z,102604.09
2023-05-24T22:34:04.892Z,102602.25
2023-05-24T22:36:38.425Z,102602.13
2023-05-24T22:39:09.561Z,102600.22
2023-05-24T22:41:45.819Z,102602.72
2023-05-24T22:44:16.848Z,102610.53
2023-05-24T22:46:46.745Z,102600.78
2023-05-24T22:49:20.766Z,102591.97
2023-05-24T22:51:50.688Z,102600.66
2023-05-24T22:54:23.769Z,102595.28
2023-05-24T22:56:54.554Z,102596.97
2023-05-24T22:59:25.204Z,102605.66
2023-05-24T23:02:02.063Z,102595.09
2023-05-24T23:04:31.685Z,102605.50
2023-05-24T23:07:02.213Z,102607.22
2023-05-24T23:09:35.242Z,102608.88
2023-05-24T23:12:19.793Z,102605.34
2023-05-24T23:14:49.304Z,102613.94
2023-05-24T23:17:23.135Z,102616.53
2023-05-24T23:19:53.130Z,102617.31
2023-05-24T23:22:24.822Z,102631.31
2023-05-24T23:24:56.041Z,102627.75
2023-05-24T23:27:31.933Z,102623.31
2023-05-24T23:30:01.755Z,102625.78
2023-05-24T23:32:32.153Z,102627.47
2023-05-24T23:35:01.795Z,102625.69
2023-05-24T23:37:31.191Z,102627.41
2023-05-24T23:40:09.257Z,102632.63
2023-05-24T23:42:42.679Z,102630.00
2023-05-24T23:45:15.726Z,102631.03
2023-05-24T23:47:45.936Z,102637.28
2023-05-24T23:50:17.629Z,102628.53
2023-05-24T23:52:48.420Z,102637.16
2023-05-24T23:55:18.712Z,102637.97
2023-05-24T23:57:49.992Z,102639.66
